createdAt,value
2022-12-05T00:02:19.936Z,2.27
2022-12-05T00:05:08.080Z,2.80
2022-12-05T00:07:55.669Z,2.93
2022-12-05T00:10:43.350Z,2.23
2022-12-05T00:13:31.189Z,2.20
2022-12-05T00:16:22.460Z,2.00
2022-12-05T00:19:14.718Z,3.43
2022-12-05T00:22:02.134Z,2.60
2022-12-05T00:24:49.594Z,3.27
2022-12-05T00:27:37.040Z,2.47
2022-12-05T00:30:24.529Z,3.23
2022-12-05T00:33:11.941Z,3.23
2022-12-05T00:36:10.277Z,2.30
2022-12-05T00:39:02.727Z,2.90
2022-12-05T00:41:50.189Z,2.73
2022-12-05T00:44:37.625Z,3.07
2022-12-05T00:47:25.099Z,2.53
2022-12-05T00:50:12.554Z,2.53
2022-12-05T00:52:59.984Z,2.60
2022-12-05T00:55:47.365Z,2.03
2022-12-05T00:58:35.810Z,2.90
2022-12-05T01:01:37.470Z,3.00
2022-12-05T01:04:26.382Z,2.80
2022-12-05T01:07:13.799Z,2.97
2022-12-05T01:10:01.336Z,3.10
2022-12-05T01:12:48.804Z,2.47
2022-12-05T01:15:39.199Z,3.10
2022-12-05T01:18:28.242Z,2.43
2022-12-05T01:21:16.000Z,2.63
2022-12-05T01:24:03.556Z,3.13
2022-12-05T01:26:51.221Z,2.50
2022-12-05T01:29:38.717Z,3.37
2022-12-05T01:32:26.335Z,1.90
2022-12-05T01:35:13.824Z,2.30
2022-12-05T01:38:01.841Z,2.53
2022-12-05T01:40:49.314Z,2.27
2022-12-05T01:44:05.745Z,3.43
2022-12-05T01:46:54.805Z,2.63
2022-12-05T01:49:43.270Z,1.90
2022-12-05T01:52:33.682Z,2.70
2022-12-05T01:55:21.295Z,2.33
2022-12-05T01:58:10.831Z,3.40
2022-12-05T02:00:58.535Z,3.23
2022-12-05T02:03:50.769Z,2.17
2022-12-05T02:06:39.224Z,2.67
2022-12-05T02:09:26.680Z,2.70
2022-12-05T02:12:14.143Z,2.47
2022-12-05T02:15:10.350Z,2.20
2022-12-05T02:18:03.734Z,3.40
2022-12-05T02:21:17.940Z,3.00
2022-12-05T02:24:38.414Z,4.17
2022-12-05T02:28:08.474Z,2.83
2022-12-05T02:31:14.133Z,2.50
2022-12-05T02:34:20.084Z,3.50
2022-12-05T02:37:22.945Z,2.60
2022-12-05T02:40:38.473Z,2.93
2022-12-05T02:43:51.489Z,3.17
2022-12-05T02:46:42.026Z,3.63
2022-12-05T02:49:36.715Z,3.33
2022-12-05T02:52:27.988Z,2.60
2022-12-05T02:55:19.179Z,3.83
2022-12-05T02:58:16.404Z,3.83
2022-12-05T03:01:04.428Z,4.77
2022-12-05T03:03:51.931Z,4.30
2022-12-05T03:07:09.889Z,4.03
2022-12-05T03:10:04.638Z,5.00
2022-12-05T03:13:10.119Z,4.40
2022-12-05T03:16:05.669Z,4.87
2022-12-05T03:19:18.795Z,4.07
2022-12-05T03:22:29.401Z,4.93
2022-12-05T03:25:17.851Z,4.43
2022-12-05T03:28:29.228Z,4.03
2022-12-05T03:31:30.646Z,4.43
2022-12-05T03:34:37.225Z,3.33
2022-12-05T03:37:38.177Z,4.17
2022-12-05T03:41:06.868Z,4.40
2022-12-05T03:44:24.542Z,3.83
2022-12-05T03:47:29.654Z,4.53
2022-12-05T03:50:30.334Z,3.23
2022-12-05T03:53:34.250Z,4.60
2022-12-05T03:56:32.079Z,4.27
2022-12-05T03:59:50.218Z,4.60
2022-12-05T04:02:51.353Z,3.80
2022-12-05T04:05:58.485Z,4.10
2022-12-05T04:08:57.805Z,2.80
2022-12-05T04:12:01.349Z,3.67
2022-12-05T04:14:58.954Z,4.63
2022-12-05T04:17:57.563Z,3.87
2022-12-05T04:21:06.892Z,4.57
2022-12-05T04:24:13.039Z,4.43
2022-12-05T04:27:23.764Z,4.17
2022-12-05T04:30:20.516Z,5.50
2022-12-05T04:33:17.595Z,5.60
2022-12-05T04:36:17.873Z,5.70
2022-12-05T04:39:17.705Z,5.57
2022-12-05T04:42:37.962Z,4.93
2022-12-05T04:45:27.501Z,5.13
2022-12-05T04:48:19.300Z,4.67
2022-12-05T04:51:13.408Z,3.77
2022-12-05T04:54:59.649Z,3.30
2022-12-05T04:58:00.405Z,5.07
2022-12-05T05:00:59.266Z,4.73
2022-12-05T05:03:59.781Z,3.27
2022-12-05T05:06:47.726Z,3.60
2022-12-05T05:09:36.575Z,4.37
2022-12-05T05:12:24.049Z,3.97
2022-12-05T05:15:11.740Z,4.33
2022-12-05T05:17:59.202Z,4.50
2022-12-05T05:20:46.713Z,4.17
2022-12-05T05:23:34.150Z,4.33
2022-12-05T05:26:23.841Z,3.47
2022-12-05T05:29:13.485Z,3.57
2022-12-05T05:32:01.000Z,3.87
2022-12-05T05:34:48.435Z,4.10
2022-12-05T05:37:35.875Z,3.90
2022-12-05T05:40:23.378Z,4.07
2022-12-05T05:43:10.815Z,3.47
2022-12-05T05:45:58.607Z,4.07
2022-12-05T05:48:46.823Z,3.33
2022-12-05T05:51:34.345Z,3.53
2022-12-05T05:54:21.820Z,4.13
2022-12-05T05:57:09.448Z,4.33
2022-12-05T05:59:57.175Z,3.67
2022-12-05T06:02:44.974Z,2.93
2022-12-05T06:05:32.716Z,3.60
2022-12-05T06:08:20.329Z,3.00
2022-12-05T06:11:26.900Z,3.67
2022-12-05T06:14:14.707Z,4.27
2022-12-05T06:17:02.140Z,4.60
2022-12-05T06:19:49.589Z,4.13
2022-12-05T06:22:37.040Z,3.57
2022-12-05T06:25:24.641Z,4.50
2022-12-05T06:28:12.077Z,3.93
2022-12-05T06:30:59.621Z,3.60
2022-12-05T06:33:48.229Z,4.20
2022-12-05T06:36:36.269Z,3.43
2022-12-05T06:39:23.714Z,3.97
2022-12-05T06:42:11.249Z,3.50
2022-12-05T06:44:58.686Z,3.77
2022-12-05T06:47:46.170Z,3.90
2022-12-05T06:50:34.409Z,3.93
2022-12-05T06:53:21.960Z,5.03
2022-12-05T06:56:15.286Z,3.77
2022-12-05T06:59:02.814Z,5.13
2022-12-05T07:01:57.116Z,3.97
2022-12-05T07:04:44.699Z,3.57
2022-12-05T07:07:32.212Z,4.00
2022-12-05T07:10:19.666Z,4.90
2022-12-05T07:13:07.101Z,3.40
2022-12-05T07:15:54.540Z,3.67
2022-12-05T07:18:42.028Z,4.17
2022-12-05T07:21:29.514Z,3.93
2022-12-05T07:24:17.046Z,3.97
2022-12-05T07:27:04.530Z,3.17
2022-12-05T07:29:51.941Z,4.47
2022-12-05T07:32:39.395Z,3.83
2022-12-05T07:35:26.914Z,5.40
2022-12-05T07:38:14.341Z,3.40
2022-12-05T07:41:13.480Z,4.03
2022-12-05T07:44:01.359Z,3.37
2022-12-05T07:46:48.877Z,4.47
2022-12-05T07:49:37.039Z,4.93
2022-12-05T07:52:24.511Z,3.67
2022-12-05T07:55:11.960Z,4.37
2022-12-05T07:57:59.415Z,5.33
2022-12-05T08:00:46.916Z,4.00
2022-12-05T08:03:37.525Z,4.23
2022-12-05T08:06:30.497Z,4.43
2022-12-05T08:09:17.944Z,3.87
2022-12-05T08:12:05.809Z,4.67
2022-12-05T08:14:53.280Z,4.37
2022-12-05T08:17:40.755Z,4.03
2022-12-05T08:20:28.239Z,4.47
2022-12-05T08:23:15.660Z,4.97
2022-12-05T08:26:07.480Z,3.27
2022-12-05T08:28:59.005Z,4.47
2022-12-05T08:31:50.199Z,4.20
2022-12-05T08:34:37.719Z,4.17
2022-12-05T08:37:25.169Z,3.87
2022-12-05T08:40:13.049Z,5.47
2022-12-05T08:43:00.566Z,4.73
2022-12-05T08:45:54.950Z,4.37
2022-12-05T08:48:42.470Z,5.03
2022-12-05T08:51:30.045Z,4.63
2022-12-05T08:54:18.048Z,4.70
2022-12-05T08:57:05.470Z,4.70
2022-12-05T08:59:52.989Z,4.97
2022-12-05T09:02:40.487Z,3.93
2022-12-05T09:05:29.348Z,3.30
2022-12-05T09:08:17.256Z,4.43
2022-12-05T09:11:24.163Z,4.50
2022-12-05T09:14:12.157Z,4.03
2022-12-05T09:17:01.054Z,3.83
2022-12-05T09:19:52.949Z,4.60
2022-12-05T09:22:41.780Z,5.50
2022-12-05T09:25:29.174Z,5.10
2022-12-05T09:28:16.675Z,6.37
2022-12-05T09:31:08.270Z,5.30
2022-12-05T09:33:56.293Z,5.93
2022-12-05T09:36:44.141Z,4.67
2022-12-05T09:39:32.359Z,4.13
2022-12-05T09:42:38.382Z,5.60
2022-12-05T09:45:52.222Z,4.37
2022-12-05T09:48:41.120Z,4.37
2022-12-05T09:51:28.850Z,5.40
2022-12-05T09:54:17.140Z,5.93
2022-12-05T09:57:06.619Z,5.77
2022-12-05T09:59:54.519Z,5.33
2022-12-05T10:03:19.849Z,5.37
2022-12-05T10:06:25.419Z,3.60
2022-12-05T10:09:15.529Z,4.17
2022-12-05T10:12:58.027Z,3.67
2022-12-05T10:15:57.032Z,5.20
2022-12-05T10:18:55.769Z,4.50
2022-12-05T10:21:59.190Z,3.90
2022-12-05T10:24:56.894Z,5.07
2022-12-05T10:27:56.059Z,3.90
2022-12-05T10:30:48.695Z,3.87
2022-12-05T10:33:49.500Z,4.00
2022-12-05T10:36:36.974Z,4.77
2022-12-05T10:39:24.620Z,2.70
2022-12-05T10:42:27.070Z,4.73
2022-12-05T10:45:25.470Z,5.30
2022-12-05T10:48:17.120Z,4.20
2022-12-05T10:51:07.410Z,3.23
2022-12-05T10:53:56.305Z,4.30
2022-12-05T10:56:53.395Z,3.47
2022-12-05T10:59:48.029Z,4.53
2022-12-05T11:02:38.192Z,2.93
2022-12-05T11:05:31.750Z,3.67
2022-12-05T11:08:55.933Z,2.80
2022-12-05T11:11:34.794Z,3.13
2022-12-05T11:14:24.599Z,3.13
2022-12-05T11:17:31.847Z,3.53
2022-12-05T11:20:19.249Z,3.73
2022-12-05T11:23:30.996Z,2.90
2022-12-05T11:26:38.691Z,3.53
2022-12-05T11:29:39.632Z,4.37
2022-12-05T11:32:32.684Z,3.37
2022-12-05T11:35:28.891Z,3.40
2022-12-05T11:38:27.314Z,3.60
2022-12-05T11:41:47.679Z,3.07
2022-12-05T11:44:53.089Z,3.23
2022-12-05T11:48:05.564Z,4.03
2022-12-05T11:51:21.900Z,4.77
2022-12-05T11:55:04.447Z,3.93
2022-12-05T11:58:33.055Z,4.27
2022-12-05T12:01:41.527Z,4.27
2022-12-05T12:04:45.707Z,3.00
2022-12-05T12:08:12.998Z,3.50
2022-12-05T12:11:32.605Z,4.03
2022-12-05T12:14:53.604Z,3.43
2022-12-05T12:17:56.970Z,3.30
2022-12-05T12:21:09.370Z,4.93
2022-12-05T12:24:19.970Z,3.00
2022-12-05T12:27:28.489Z,3.93
2022-12-05T12:30:24.926Z,5.37
2022-12-05T12:33:30.757Z,3.87
2022-12-05T12:36:55.517Z,2.90
2022-12-05T12:40:15.144Z,3.13
2022-12-05T12:43:52.736Z,2.87
2022-12-05T12:47:01.060Z,2.80
2022-12-05T12:50:01.480Z,2.17
2022-12-05T12:53:25.785Z,3.87
2022-12-05T12:56:22.096Z,3.80
2022-12-05T12:59:36.563Z,3.30
2022-12-05T13:02:36.728Z,3.03
2022-12-05T13:05:51.582Z,3.37
2022-12-05T13:09:01.265Z,3.47
2022-12-05T13:11:52.458Z,3.13
2022-12-05T13:14:52.494Z,2.50
2022-12-05T13:17:44.264Z,3.43
2022-12-05T13:20:35.829Z,2.97
2022-12-05T13:23:29.005Z,3.67
2022-12-05T13:26:17.873Z,2.90
2022-12-05T13:29:05.707Z,3.13
2022-12-05T13:31:53.493Z,3.00
2022-12-05T13:34:49.083Z,2.67
2022-12-05T13:37:56.125Z,3.73
2022-12-05T13:41:12.349Z,2.40
2022-12-05T13:44:06.783Z,2.80
2022-12-05T13:46:54.836Z,3.30
2022-12-05T13:49:57.013Z,3.70
2022-12-05T13:53:05.195Z,3.07
2022-12-05T13:56:26.594Z,1.80
2022-12-05T13:59:52.795Z,4.07
2022-12-05T14:02:47.244Z,2.70
2022-12-05T14:05:46.942Z,2.90
2022-12-05T14:08:40.624Z,2.30
2022-12-05T14:11:28.311Z,3.37
2022-12-05T14:15:02.437Z,3.33
2022-12-05T14:17:49.965Z,2.50
2022-12-05T14:21:09.249Z,2.80
2022-12-05T14:24:17.600Z,1.83
2022-12-05T14:27:41.001Z,2.23
2022-12-05T14:31:23.660Z,2.93
2022-12-05T14:34:33.558Z,1.73
2022-12-05T14:37:49.754Z,2.47
2022-12-05T14:40:44.690Z,2.77
2022-12-05T14:43:34.801Z,3.23
2022-12-05T14:46:30.742Z,2.60
2022-12-05T14:50:02.220Z,2.57
2022-12-05T14:53:15.392Z,2.93
2022-12-05T14:56:14.147Z,3.77
2022-12-05T14:59:36.848Z,3.60
2022-12-05T15:02:45.020Z,2.77
2022-12-05T15:05:34.829Z,2.33
2022-12-05T15:08:23.605Z,2.90
2022-12-05T15:11:30.699Z,3.27
2022-12-05T15:14:23.305Z,2.30
2022-12-05T15:17:21.904Z,2.37
2022-12-05T15:20:25.893Z,2.50
2022-12-05T15:23:39.005Z,2.97
2022-12-05T15:26:47.941Z,2.97
2022-12-05T15:29:35.797Z,3.43
2022-12-05T15:32:27.729Z,2.20
2022-12-05T15:35:16.636Z,1.33
2022-12-05T15:38:27.750Z,1.90
2022-12-05T15:41:18.568Z,2.13
2022-12-05T15:44:06.462Z,2.97
2022-12-05T15:46:57.940Z,2.20
2022-12-05T15:49:46.691Z,3.77
2022-12-05T15:52:43.943Z,2.27
2022-12-05T15:55:40.607Z,2.83
2022-12-05T15:58:32.650Z,2.33
2022-12-05T16:01:23.108Z,1.87
2022-12-05T16:04:29.852Z,2.13
2022-12-05T16:07:17.831Z,3.47
2022-12-05T16:10:06.740Z,3.30
2022-12-05T16:12:55.061Z,2.73
2022-12-05T16:15:54.252Z,3.00
2022-12-05T16:18:58.199Z,2.97
2022-12-05T16:22:06.892Z,2.70
2022-12-05T16:25:03.084Z,2.90
2022-12-05T16:28:17.440Z,2.83
2022-12-05T16:31:06.836Z,1.80
2022-12-05T16:34:07.867Z,2.73
2022-12-05T16:36:57.599Z,3.40
2022-12-05T16:39:46.260Z,3.37
2022-12-05T16:42:35.099Z,3.40
2022-12-05T16:45:44.446Z,3.43
2022-12-05T16:48:32.573Z,6.90
2022-12-05T16:51:28.814Z,9.37
2022-12-05T16:54:16.187Z,8.97
2022-12-05T16:57:05.297Z,4.73
2022-12-05T16:59:52.720Z,3.90
2022-12-05T17:02:40.194Z,3.20
2022-12-05T17:05:27.700Z,3.40
2022-12-05T17:08:15.212Z,2.43
2022-12-05T17:11:03.613Z,2.53
2022-12-05T17:13:52.397Z,2.93
2022-12-05T17:16:40.049Z,2.13
2022-12-05T17:19:29.089Z,3.33
2022-12-05T17:22:17.049Z,4.10
2022-12-05T17:25:20.964Z,2.53
2022-12-05T17:28:08.372Z,2.97
2022-12-05T17:30:55.963Z,2.73
2022-12-05T17:33:45.926Z,3.57
2022-12-05T17:36:33.360Z,3.57
2022-12-05T17:39:26.526Z,3.03
2022-12-05T17:42:15.707Z,3.20
2022-12-05T17:45:03.507Z,2.67
2022-12-05T17:47:51.722Z,3.43
2022-12-05T17:50:42.019Z,3.67
2022-12-05T17:53:31.210Z,2.73
2022-12-05T17:56:19.003Z,2.73
2022-12-05T17:59:07.519Z,1.90
2022-12-05T18:01:55.021Z,3.03
2022-12-05T18:04:42.640Z,4.17
2022-12-05T18:07:30.220Z,2.80
2022-12-05T18:10:22.109Z,3.37
2022-12-05T18:13:10.780Z,3.37
2022-12-05T18:15:59.235Z,3.33
2022-12-05T18:18:46.701Z,3.80
2022-12-05T18:21:34.124Z,3.97
2022-12-05T18:24:21.591Z,2.67
2022-12-05T18:27:09.069Z,2.60
2022-12-05T18:29:56.600Z,2.37
2022-12-05T18:32:44.421Z,2.67
2022-12-05T18:35:41.165Z,3.30
2022-12-05T18:38:28.584Z,2.23
2022-12-05T18:41:16.100Z,3.23
2022-12-05T18:44:03.640Z,2.70
2022-12-05T18:46:51.140Z,2.20
2022-12-05T18:49:38.686Z,2.53
2022-12-05T18:52:26.139Z,3.77
2022-12-05T18:55:18.391Z,3.10
2022-12-05T18:58:08.964Z,2.30
2022-12-05T19:01:13.504Z,3.03
2022-12-05T19:04:03.006Z,2.90
2022-12-05T19:06:57.919Z,2.40
2022-12-05T19:09:45.432Z,2.43
2022-12-05T19:12:32.815Z,2.70
2022-12-05T19:15:20.265Z,3.87
2022-12-05T19:18:07.661Z,2.53
2022-12-05T19:20:55.105Z,2.87
2022-12-05T19:23:43.116Z,2.53
2022-12-05T19:26:30.689Z,2.80
2022-12-05T19:29:18.335Z,3.17
2022-12-05T19:32:06.020Z,2.97
2022-12-05T19:34:53.640Z,3.87
2022-12-05T19:37:41.029Z,2.40
2022-12-05T19:40:28.525Z,2.40
2022-12-05T19:43:15.935Z,2.40
2022-12-05T19:46:16.721Z,2.60
2022-12-05T19:49:08.690Z,2.93
2022-12-05T19:51:56.185Z,2.47
2022-12-05T19:54:45.077Z,2.90
2022-12-05T19:57:32.484Z,3.50
2022-12-05T20:00:20.242Z,2.47
2022-12-05T20:03:12.217Z,2.33
2022-12-05T20:06:01.265Z,3.53
2022-12-05T20:08:51.361Z,2.67
2022-12-05T20:11:42.364Z,2.47
2022-12-05T20:14:30.035Z,3.07
2022-12-05T20:17:17.485Z,3.50
2022-12-05T20:20:06.168Z,3.07
2022-12-05T20:22:54.042Z,2.77
2022-12-05T20:25:41.585Z,3.37
2022-12-05T20:28:30.837Z,2.63
2022-12-05T20:31:22.551Z,3.50
2022-12-05T20:34:13.837Z,4.83
2022-12-05T20:37:01.598Z,4.03
2022-12-05T20:39:50.239Z,3.17
2022-12-05T20:42:40.909Z,4.00
2022-12-05T20:45:33.928Z,4.47
2022-12-05T20:48:26.035Z,2.80
2022-12-05T20:51:26.101Z,3.23
2022-12-05T20:54:16.791Z,4.80
2022-12-05T20:57:04.320Z,3.87
2022-12-05T20:59:51.739Z,3.07
2022-12-05T21:02:39.163Z,5.37
2022-12-05T21:05:26.661Z,5.10
2022-12-05T21:08:14.253Z,4.50
2022-12-05T21:11:01.752Z,3.50
2022-12-05T21:13:49.300Z,3.10
2022-12-05T21:16:37.299Z,3.23
2022-12-05T21:19:26.900Z,3.93
2022-12-05T21:22:14.485Z,2.00
2022-12-05T21:25:02.169Z,3.60
2022-12-05T21:27:49.595Z,3.47
2022-12-05T21:30:37.019Z,2.83
2022-12-05T21:33:28.677Z,3.53
2022-12-05T21:36:17.099Z,3.23
2022-12-05T21:39:07.331Z,2.73
2022-12-05T21:41:54.858Z,2.07
2022-12-05T21:44:42.479Z,2.67
2022-12-05T21:47:30.326Z,3.37
2022-12-05T21:50:17.933Z,2.63
2022-12-05T21:53:05.340Z,4.20
2022-12-05T21:56:11.625Z,2.90
2022-12-05T21:58:59.094Z,2.40
2022-12-05T22:01:46.590Z,3.10
2022-12-05T22:04:34.100Z,2.70
2022-12-05T22:07:21.609Z,4.17
2022-12-05T22:10:09.389Z,3.07
2022-12-05T22:12:57.075Z,2.10
2022-12-05T22:15:44.519Z,2.40
2022-12-05T22:18:32.685Z,4.33
2022-12-05T22:21:22.475Z,2.57
2022-12-05T22:24:09.864Z,2.60
2022-12-05T22:26:57.401Z,1.93
2022-12-05T22:29:49.832Z,3.27
2022-12-05T22:32:40.034Z,2.07
2022-12-05T22:35:27.430Z,2.53
2022-12-05T22:38:14.829Z,4.47
2022-12-05T22:41:09.685Z,2.67
2022-12-05T22:44:00.258Z,3.23
2022-12-05T22:46:47.683Z,2.70
2022-12-05T22:49:35.286Z,1.73
2022-12-05T22:52:22.796Z,2.03
2022-12-05T22:55:10.211Z,2.37
2022-12-05T22:57:57.731Z,3.37
2022-12-05T23:00:46.523Z,2.33
2022-12-05T23:03:33.985Z,4.17
2022-12-05T23:06:21.534Z,2.87
2022-12-05T23:09:11.564Z,1.90
2022-12-05T23:11:58.995Z,2.37
2022-12-05T23:14:46.447Z,1.80
2022-12-05T23:17:34.405Z,2.17
2022-12-05T23:20:21.888Z,2.10
2022-12-05T23:23:09.394Z,2.63
2022-12-05T23:25:57.569Z,2.63
2022-12-05T23:28:45.669Z,1.63
2022-12-05T23:31:34.008Z,2.27
2022-12-05T23:34:21.530Z,2.30
2022-12-05T23:37:09.135Z,1.60
2022-12-05T23:39:56.803Z,2.13
2022-12-05T23:42:44.739Z,2.93
2022-12-05T23:45:32.214Z,2.00
2022-12-05T23:48:19.686Z,2.50
2022-12-05T23:51:11.178Z,1.80
2022-12-05T23:54:02.219Z,2.20
2022-12-05T23:56:49.693Z,2.07
2022-12-05T23:59:37.489Z,2.43
